Pagina principale
METAR-TAF:

METAR-TAF

Aeroporti :

Chièvres, Belgio

latitudine: 50-34N, longitudine: 003-50E, altezza: 60 m

Osservazione

Il bollettino è stato emesso 32 minuti fa, alle 19:25 UTC
Vento 6 kt da ovest
Temperature 16°C
Umidità 63%
Pressione 1016 hPa
Visibilità 10 km o più

METAR: EBCV 201925Z AUTO 26006KT 9999 NCD 16/09 Q1016 BLU

Ora: 21:57 (19:57 UTC)

Previsione

Il bollettino è stato emesso 4 ore e 16 minuti fa, alle 15:41 UTC
Previsione valida dal 20 alle 19 UTC al 21 alle 07 UTC
Vento 5 kt da ovest/sud-ovest
Visibilità 10 km o più
Poco nuvoloso ad un'altezza di 4000 ft
Temporaneamente
dal 21 alle 03 UTC al 21 alle 07 UTC
Vento 5 kt da ovest/sud-ovest
Nubi sparse ad un'altezza di 800 ft

TAF: EBCV 201541Z 2019/2107 24005KT 9999 FEW040 TEMPO 2103/2107 24005KT SCT008 BY EBWM

Osservazioni e previsioni meteorologiche di più di 4000 aeroporti (messaggi METAR e TAF).

Le stazioni disponibili sono rappresentate dai dischi gialli e rossi sulla carta.

Puntare il mouse per vedere il nome della stazione.

Clicca sopra per visualizzare le osservazioni e previsioni meteorologiche.

Per cambiare la mappa : fare clic sui pulsanti verdi con una croce nera per ingrandire, il pulsante verde con un trattino per diminuire, o sulla freccia verde per le mappe adiacenti.


METAR-TAF: